Terminal Aerodrome Forecast
Issued by NWS

Home | Current Version | Previous Version | Graphics & Text | Print | Product List | Glossary On
Versions: 1 2 3 4 5 6 7 8 9 10 11 12 13 14
000
FTUS43 KICT 162300
TAFSLN
TAF
KSLN 162325Z 1700/1724 34013KT P6SM BKN200
     FM170400 02010KT P6SM BKN150
     FM171000 05009KT P6SM OVC100=

USA.gov is the U.S. government's official web portal to all federal, state and local government web resources and services.